Terminal Aerodrome Forecast
Issued by NWS

Home | Current Version | Previous Version | Text Only | Print | Product List | Glossary On
Versions: 1 2 3 4 5 6 7 8 9 10 11 12 13 14 15 16 17 18 19 20 21 22 23 24 25 26 27 28
024
FTUS43 KDLH 302039 AAB
TAFBRD
TAF AMD
KBRD 302039Z 3021/0118 34009KT P6SM VCSH BKN011 OVC019
      TEMPO 3021/3022 FEW014 OVC040
     FM010600 34007KT 6SM -SN BR OVC007
      TEMPO 0111/0112 5SM -FZDZ BR
     FM011600 33007KT P6SM BKN010=

USA.gov is the U.S. government's official web portal to all federal, state and local government web resources and services.